createdAt,value
2018-04-07T00:01:31.680Z,4.10
2018-04-07T00:03:58.640Z,4.20
2018-04-07T00:06:25.568Z,4.10
2018-04-07T00:08:51.743Z,4.10
2018-04-07T00:11:17.945Z,4.10
2018-04-07T00:13:44.878Z,3.90
2018-04-07T00:16:11.790Z,3.80
2018-04-07T00:21:35.467Z,3.80
2018-04-07T00:24:01.675Z,3.70
2018-04-07T00:26:27.911Z,3.60
2018-04-07T00:28:54.173Z,3.50
2018-04-07T00:31:20.354Z,3.50
2018-04-07T00:33:46.555Z,3.40
2018-04-07T00:36:13.511Z,3.20
2018-04-07T00:38:40.447Z,3.20
2018-04-07T00:41:07.410Z,3.10
2018-04-07T00:43:33.611Z,3.10
2018-04-07T00:46:00.612Z,3.00
2018-04-07T00:48:26.858Z,3.00
2018-04-07T00:50:53.063Z,3.00
2018-04-07T00:53:19.266Z,3.00
2018-04-07T00:55:45.490Z,2.90
2018-04-07T00:58:12.418Z,2.90
2018-04-07T01:00:38.625Z,2.90
2018-04-07T01:03:04.849Z,2.90
2018-04-07T01:05:31.047Z,2.90
2018-04-07T01:07:57.241Z,2.80
2018-04-07T01:10:24.181Z,2.80
2018-04-07T01:12:51.133Z,2.80
2018-04-07T01:15:18.104Z,2.80
2018-04-07T01:17:44.319Z,2.80
2018-04-07T01:20:10.495Z,2.80
2018-04-07T01:22:36.758Z,2.80
2018-04-07T01:25:03.659Z,2.80
2018-04-07T01:27:29.890Z,2.80
2018-04-07T01:29:56.115Z,2.80
2018-04-07T01:32:22.289Z,2.80
2018-04-07T01:34:49.234Z,2.70
2018-04-07T01:37:16.227Z,2.70
2018-04-07T01:39:42.433Z,2.70
2018-04-07T01:42:08.663Z,2.70
2018-04-07T01:44:34.876Z,2.70
2018-04-07T01:47:01.069Z,2.70
2018-04-07T01:49:27.330Z,2.70
2018-04-07T01:51:53.521Z,2.60
2018-04-07T01:54:19.730Z,2.60
2018-04-07T01:56:45.947Z,2.60
2018-04-07T01:59:12.118Z,2.60
2018-04-07T02:01:38.314Z,2.60
2018-04-07T02:04:04.542Z,2.50
2018-04-07T02:06:30.750Z,2.50
2018-04-07T02:08:56.918Z,2.50
2018-04-07T02:11:23.110Z,2.40
2018-04-07T02:13:49.363Z,2.40
2018-04-07T02:16:15.566Z,2.40
2018-04-07T02:18:41.811Z,2.30
2018-04-07T02:21:08.014Z,2.40
2018-04-07T02:23:34.238Z,2.40
2018-04-07T02:26:00.438Z,2.50
2018-04-07T02:28:27.370Z,2.70
2018-04-07T02:30:53.552Z,2.80
2018-04-07T02:33:19.747Z,2.90
2018-04-07T02:35:46.691Z,3.20
2018-04-07T02:38:13.645Z,3.40
2018-04-07T02:40:39.825Z,3.40
2018-04-07T02:43:06.084Z,3.50
2018-04-07T02:45:33.050Z,3.60
2018-04-07T02:47:59.277Z,3.60
2018-04-07T02:50:25.523Z,3.60
2018-04-07T02:52:51.676Z,3.40
2018-04-07T02:55:17.901Z,3.30
2018-04-07T02:57:44.125Z,3.10
2018-04-07T03:00:10.321Z,3.00
2018-04-07T03:02:36.574Z,2.90
2018-04-07T03:05:02.819Z,2.80
2018-04-07T03:07:29.033Z,2.70
2018-04-07T03:09:55.210Z,2.60
2018-04-07T03:12:22.153Z,2.50
2018-04-07T03:14:48.360Z,2.40
2018-04-07T03:17:14.542Z,2.40
2018-04-07T03:19:40.791Z,2.30
2018-04-07T03:22:07.010Z,2.30
2018-04-07T03:24:33.174Z,2.30
2018-04-07T03:26:59.389Z,2.30
2018-04-07T03:29:25.621Z,2.30
2018-04-07T03:31:51.814Z,2.30
2018-04-07T03:34:18.010Z,2.30
2018-04-07T03:36:44.942Z,2.40
2018-04-07T03:39:11.138Z,2.30
2018-04-07T03:41:37.370Z,2.40
2018-04-07T03:44:03.605Z,2.60
2018-04-07T03:46:29.812Z,2.70
2018-04-07T03:48:56.022Z,2.90
2018-04-07T03:51:22.221Z,3.00
2018-04-07T03:53:48.434Z,3.10
2018-04-07T03:56:14.624Z,3.20
2018-04-07T03:58:40.810Z,3.40
2018-04-07T04:01:07.746Z,3.70
2018-04-07T04:06:39.882Z,4.20
2018-04-07T04:09:06.063Z,4.20
2018-04-07T04:11:32.309Z,4.30
2018-04-07T04:13:59.261Z,4.50
2018-04-07T04:16:26.198Z,4.50
2018-04-07T04:18:53.146Z,4.40
2018-04-07T04:21:20.070Z,4.40
2018-04-07T04:23:46.293Z,4.40
2018-04-07T04:26:12.495Z,4.30
2018-04-07T04:28:38.726Z,4.10
2018-04-07T04:31:04.958Z,4.00
2018-04-07T04:33:31.174Z,4.00
2018-04-07T04:35:57.406Z,3.90
2018-04-07T04:38:23.629Z,3.90
2018-04-07T04:40:49.854Z,3.80
2018-04-07T04:43:16.066Z,3.70
2018-04-07T04:45:42.273Z,3.70
2018-04-07T04:48:09.197Z,3.60
2018-04-07T04:50:35.434Z,3.60
2018-04-07T04:53:02.394Z,3.60
2018-04-07T04:55:29.363Z,3.60
2018-04-07T04:57:55.554Z,3.60
2018-04-07T05:00:22.490Z,3.70
2018-04-07T05:02:48.690Z,3.70
2018-04-07T05:05:14.874Z,3.90
2018-04-07T05:07:41.050Z,4.10
2018-04-07T05:10:07.259Z,4.40
2018-04-07T05:12:33.464Z,4.70
2018-04-07T05:14:59.681Z,5.00
2018-04-07T05:17:25.879Z,5.20
2018-04-07T05:19:52.086Z,5.40
2018-04-07T05:22:18.273Z,5.60
2018-04-07T05:24:44.497Z,5.80
2018-04-07T05:27:10.695Z,5.90
2018-04-07T05:29:36.886Z,6.00
2018-04-07T05:32:03.073Z,6.10
2018-04-07T05:34:30.007Z,6.40
2018-04-07T05:36:56.918Z,6.50
2018-04-07T05:39:23.166Z,6.50
2018-04-07T05:41:49.386Z,6.60
2018-04-07T05:44:15.607Z,6.80
2018-04-07T05:46:41.798Z,7.30
2018-04-07T05:49:08.005Z,7.90
2018-04-07T05:51:34.954Z,8.30
2018-04-07T05:54:01.142Z,8.30
2018-04-07T05:56:27.359Z,8.00
2018-04-07T05:58:53.575Z,7.90
2018-04-07T06:01:19.780Z,7.80
2018-04-07T06:03:45.990Z,7.80
2018-04-07T06:06:12.930Z,7.90
2018-04-07T06:08:39.883Z,7.90
2018-04-07T06:11:06.068Z,7.90
2018-04-07T06:13:32.254Z,8.00
2018-04-07T06:15:58.450Z,8.10
2018-04-07T06:18:25.396Z,8.20
2018-04-07T06:20:52.330Z,8.40
2018-04-07T06:23:18.551Z,8.30
2018-04-07T06:25:44.777Z,8.50
2018-04-07T06:28:10.986Z,8.60
2018-04-07T06:30:37.203Z,8.70
2018-04-07T06:33:03.402Z,8.90
2018-04-07T06:35:29.574Z,9.10
2018-04-07T06:37:55.753Z,9.30
2018-04-07T06:40:21.990Z,9.50
2018-04-07T06:42:48.178Z,9.70
2018-04-07T06:45:14.394Z,9.80
2018-04-07T06:47:40.614Z,10.00
2018-04-07T06:50:06.810Z,10.10
2018-04-07T06:52:33.022Z,10.30
2018-04-07T06:54:59.958Z,10.50
2018-04-07T06:57:26.906Z,10.60
2018-04-07T06:59:53.826Z,10.80
2018-04-07T07:02:20.045Z,10.80
2018-04-07T07:04:46.255Z,10.90
2018-04-07T07:07:12.481Z,11.00
2018-04-07T07:09:38.687Z,11.20
2018-04-07T07:12:04.894Z,11.30
2018-04-07T07:14:31.851Z,11.40
2018-04-07T07:16:58.054Z,11.40
2018-04-07T07:19:25.019Z,11.60
2018-04-07T07:21:51.223Z,11.60
2018-04-07T07:24:17.499Z,11.70
2018-04-07T07:26:43.679Z,11.90
2018-04-07T07:29:09.866Z,12.00
2018-04-07T07:31:36.054Z,12.10
2018-04-07T07:34:02.995Z,12.30
2018-04-07T07:36:29.969Z,12.40
2018-04-07T07:38:56.143Z,12.30
2018-04-07T07:41:23.842Z,12.50
2018-04-07T07:43:50.078Z,12.50
2018-04-07T07:46:16.270Z,12.60
2018-04-07T07:48:42.474Z,12.60
2018-04-07T07:51:08.718Z,12.70
2018-04-07T07:53:34.908Z,12.90
2018-04-07T07:59:18.890Z,13.00
2018-04-07T08:01:45.149Z,13.10
2018-04-07T08:04:11.358Z,13.20
2018-04-07T08:06:37.571Z,13.40
2018-04-07T08:09:03.742Z,13.80
2018-04-07T08:11:30.673Z,14.60
2018-04-07T08:13:56.865Z,14.60
2018-04-07T08:16:23.078Z,15.00
2018-04-07T08:18:49.302Z,15.30
2018-04-07T08:21:15.518Z,15.60
2018-04-07T08:23:42.459Z,16.30
2018-04-07T08:26:09.396Z,16.60
2018-04-07T08:28:36.343Z,16.80
2018-04-07T08:31:03.283Z,17.00
2018-04-07T08:33:31.346Z,17.30
2018-04-07T08:35:57.570Z,17.30
2018-04-07T08:38:23.774Z,17.50
2018-04-07T08:40:50.068Z,17.60
2018-04-07T08:43:16.278Z,17.70
2018-04-07T08:45:42.505Z,17.70
2018-04-07T08:48:09.434Z,18.00
2018-04-07T08:50:43.106Z,17.90
2018-04-07T08:53:09.334Z,18.10
2018-04-07T08:55:35.527Z,18.30
2018-04-07T08:58:01.718Z,18.30
2018-04-07T09:00:27.911Z,18.40
2018-04-07T09:02:54.177Z,18.50
2018-04-07T09:05:20.390Z,18.80
2018-04-07T09:07:46.614Z,19.00
2018-04-07T09:10:12.842Z,19.10
2018-04-07T09:12:39.056Z,19.20
2018-04-07T09:15:05.258Z,19.30
2018-04-07T09:17:31.465Z,19.40
2018-04-07T09:19:58.398Z,19.70
2018-04-07T09:22:25.338Z,19.80
2018-04-07T09:24:51.586Z,19.80
2018-04-07T09:27:18.534Z,20.10
2018-04-07T09:29:45.478Z,20.30
2018-04-07T09:32:12.430Z,20.40
2018-04-07T09:34:38.641Z,20.40
2018-04-07T09:37:05.599Z,21.00
2018-04-07T09:39:32.074Z,21.00
2018-04-07T09:41:58.303Z,21.10
2018-04-07T09:44:24.542Z,21.40
2018-04-07T09:46:50.833Z,21.50
2018-04-07T09:49:17.032Z,21.70
2018-04-07T09:51:43.246Z,21.80
2018-04-07T09:54:09.450Z,22.00
2018-04-07T09:56:35.666Z,22.10
2018-04-07T09:59:01.858Z,22.30
2018-04-07T10:01:28.791Z,22.80
2018-04-07T10:03:55.744Z,23.00
2018-04-07T10:06:22.703Z,23.10
2018-04-07T10:08:48.930Z,23.00
2018-04-07T10:11:15.112Z,23.10
2018-04-07T10:13:41.337Z,23.20
2018-04-07T10:16:07.546Z,23.40
2018-04-07T10:18:33.733Z,23.70
2018-04-07T10:21:00.674Z,24.10
2018-04-07T10:23:27.603Z,24.10
2018-04-07T10:25:53.822Z,24.10
2018-04-07T10:28:20.031Z,24.00
2018-04-07T10:30:46.242Z,23.90
2018-04-07T10:33:12.439Z,23.90
2018-04-07T10:35:40.425Z,23.90
2018-04-07T10:38:06.674Z,23.90
2018-04-07T10:40:32.887Z,23.90
2018-04-07T10:42:59.143Z,23.80
2018-04-07T10:45:25.358Z,23.90
2018-04-07T10:47:51.536Z,24.00
2018-04-07T10:50:18.490Z,24.40
2018-04-07T10:52:45.496Z,24.50
2018-04-07T10:55:11.642Z,24.50
2018-04-07T10:57:37.826Z,24.50
2018-04-07T11:00:04.017Z,24.40
2018-04-07T11:02:30.966Z,24.30
2018-04-07T11:04:57.187Z,24.20
2018-04-07T11:07:24.131Z,24.50
2018-04-07T11:09:51.089Z,24.80
2018-04-07T11:12:17.291Z,24.80
2018-04-07T11:14:43.481Z,25.00
2018-04-07T11:17:09.698Z,24.90
2018-04-07T11:19:35.901Z,24.90
2018-04-07T11:22:02.842Z,25.30
2018-04-07T11:24:41.189Z,25.30
2018-04-07T11:27:07.366Z,25.50
2018-04-07T11:29:33.672Z,25.60
2018-04-07T11:31:59.886Z,25.60
2018-04-07T11:34:26.131Z,25.50
2018-04-07T11:36:52.367Z,25.50
2018-04-07T11:39:18.582Z,25.60
2018-04-07T11:41:44.779Z,25.60
2018-04-07T11:44:10.966Z,25.40
2018-04-07T11:46:37.195Z,25.30
2018-04-07T11:49:03.375Z,25.20
2018-04-07T11:51:29.600Z,25.10
2018-04-07T11:53:55.815Z,25.10
2018-04-07T11:56:22.016Z,25.30
2018-04-07T11:58:48.944Z,25.50
2018-04-07T12:01:15.199Z,25.50
2018-04-07T12:03:42.143Z,25.40
2018-04-07T12:06:09.090Z,25.30
2018-04-07T12:08:35.329Z,25.30
2018-04-07T12:11:01.530Z,25.40
2018-04-07T12:13:28.507Z,25.80
2018-04-07T12:15:54.706Z,25.80
2018-04-07T12:18:21.642Z,25.80
2018-04-07T12:20:47.843Z,25.80
2018-04-07T12:23:14.087Z,25.80
2018-04-07T12:25:40.358Z,25.90
2018-04-07T12:28:06.526Z,25.90
2018-04-07T12:30:32.740Z,25.90
2018-04-07T12:32:58.963Z,25.90
2018-04-07T12:35:25.215Z,25.90
2018-04-07T12:37:51.411Z,26.00
2018-04-07T12:40:17.610Z,26.00
2018-04-07T12:42:44.645Z,25.90
2018-04-07T12:45:10.842Z,25.90
2018-04-07T12:47:37.018Z,25.90
2018-04-07T12:50:04.017Z,25.90
2018-04-07T12:52:30.222Z,25.80
2018-04-07T12:54:56.417Z,25.80
2018-04-07T12:57:23.373Z,25.90
2018-04-07T12:59:50.309Z,25.80
2018-04-07T13:02:17.250Z,25.90
2018-04-07T13:04:44.210Z,26.00
2018-04-07T13:07:11.178Z,26.10
2018-04-07T13:09:37.368Z,26.10
2018-04-07T13:12:04.310Z,26.10
2018-04-07T13:14:31.292Z,26.00
2018-04-07T13:16:57.468Z,25.90
2018-04-07T13:19:23.714Z,25.90
2018-04-07T13:21:50.662Z,26.10
2018-04-07T13:24:17.623Z,26.20
2018-04-07T13:26:43.831Z,26.20
2018-04-07T13:29:10.026Z,26.30
2018-04-07T13:31:36.229Z,26.40
2018-04-07T13:35:08.475Z,25.20
2018-04-07T13:37:35.302Z,25.90
2018-04-07T13:40:01.397Z,25.90
2018-04-07T13:42:27.493Z,26.30
2018-04-07T13:44:53.594Z,26.30
2018-04-07T13:47:20.410Z,26.30
2018-04-07T13:49:46.526Z,26.20
2018-04-07T13:52:12.604Z,26.30
2018-04-07T13:54:38.689Z,26.30
2018-04-07T13:57:04.789Z,26.50
2018-04-07T13:59:30.869Z,26.60
2018-04-07T14:01:57.719Z,26.60
2018-04-07T14:04:24.554Z,26.50
2018-04-07T14:06:51.402Z,26.40
2018-04-07T14:09:18.237Z,26.20
2018-04-07T14:11:45.097Z,26.20
2018-04-07T14:14:11.177Z,26.20
2018-04-07T14:16:37.305Z,26.10
2018-04-07T14:19:03.386Z,26.00
2018-04-07T14:21:29.469Z,25.80
2018-04-07T14:23:55.552Z,25.70
2018-04-07T14:26:21.637Z,25.60
2018-04-07T14:28:48.461Z,25.70
2018-04-07T14:31:14.558Z,25.70
2018-04-07T14:33:40.644Z,25.80
2018-04-07T14:36:06.722Z,25.80
2018-04-07T14:38:32.818Z,25.80
2018-04-07T14:40:58.900Z,25.80
2018-04-07T14:43:25.732Z,25.80
2018-04-07T14:45:51.825Z,25.70
2018-04-07T14:48:17.910Z,25.70
2018-04-07T14:50:43.992Z,25.50
2018-04-07T14:53:10.091Z,25.70
2018-04-07T14:55:36.176Z,25.70
2018-04-07T14:58:02.992Z,25.70
2018-04-07T15:03:01.946Z,25.80
2018-04-07T15:05:28.026Z,25.80
2018-04-07T15:07:54.117Z,25.70
2018-04-07T15:10:20.214Z,25.70
2018-04-07T15:12:46.302Z,25.70
2018-04-07T15:15:12.396Z,25.70
2018-04-07T15:17:38.477Z,25.70
2018-04-07T15:20:05.299Z,25.60
2018-04-07T15:22:31.372Z,25.60
2018-04-07T15:24:57.449Z,25.60
2018-04-07T15:27:23.537Z,25.60
2018-04-07T15:29:49.625Z,25.50
2018-04-07T15:32:16.473Z,25.30
2018-04-07T15:34:42.553Z,25.20
2018-04-07T15:37:08.644Z,25.20
2018-04-07T15:39:34.737Z,25.20
2018-04-07T15:42:01.566Z,25.00
2018-04-07T15:44:27.654Z,25.00
2018-04-07T15:46:53.737Z,24.90
2018-04-07T15:49:20.570Z,24.60
2018-04-07T15:51:47.400Z,24.50
2018-04-07T15:54:13.490Z,24.50
2018-04-07T15:56:39.602Z,24.40
2018-04-07T15:59:05.669Z,24.40
2018-04-07T16:01:31.762Z,24.20
2018-04-07T16:03:57.848Z,24.00
2018-04-07T16:06:24.685Z,23.70
2018-04-07T16:08:51.534Z,23.50
2018-04-07T16:11:18.376Z,23.40
2018-04-07T16:13:44.469Z,23.40
2018-04-07T16:16:10.557Z,23.30
2018-04-07T16:18:36.640Z,23.10
2018-04-07T16:21:02.740Z,23.00
2018-04-07T16:23:28.833Z,22.80
2018-04-07T16:25:54.926Z,22.70
2018-04-07T16:28:21.760Z,22.50
2018-04-07T16:30:48.589Z,22.50
2018-04-07T16:33:14.688Z,22.40
2018-04-07T16:35:40.773Z,22.40
2018-04-07T16:38:06.873Z,22.30
2018-04-07T16:40:32.956Z,22.20
2018-04-07T16:42:59.054Z,22.10
2018-04-07T16:45:25.162Z,21.90
2018-04-07T16:47:51.294Z,21.80
2018-04-07T16:50:18.125Z,21.60
2018-04-07T16:52:44.205Z,21.60
2018-04-07T16:55:10.297Z,21.50
2018-04-07T16:57:36.409Z,21.30
2018-04-07T17:00:03.238Z,21.10
2018-04-07T17:02:29.329Z,21.10
2018-04-07T17:04:55.426Z,20.90
2018-04-07T17:07:21.516Z,20.80
2018-04-07T17:09:47.630Z,20.70
2018-04-07T17:12:13.713Z,20.60
2018-04-07T17:14:39.805Z,20.40
2018-04-07T17:17:06.637Z,20.20
2018-04-07T17:19:32.757Z,20.10
2018-04-07T17:21:58.866Z,20.00
2018-04-07T17:24:24.950Z,19.90
2018-04-07T17:26:51.064Z,19.70
2018-04-07T17:29:17.153Z,19.60
2018-04-07T17:31:43.249Z,19.40
2018-04-07T17:34:09.366Z,19.30
2018-04-07T17:36:35.453Z,19.10
2018-04-07T17:39:02.278Z,18.90
2018-04-07T17:41:29.114Z,18.70
2018-04-07T17:43:55.205Z,18.70
2018-04-07T17:46:21.301Z,18.60
2018-04-07T17:48:47.417Z,18.50
2018-04-07T17:51:14.267Z,18.30
2018-04-07T17:53:41.276Z,18.30
2018-04-07T17:56:07.368Z,18.20
2018-04-07T17:58:33.465Z,18.20
2018-04-07T18:01:00.326Z,18.10
2018-04-07T18:03:26.413Z,18.10
2018-04-07T18:05:52.500Z,18.00
2018-04-07T18:08:18.581Z,18.00
2018-04-07T18:10:45.418Z,17.80
2018-04-07T18:13:12.253Z,17.70
2018-04-07T18:15:39.102Z,17.50
2018-04-07T18:18:05.993Z,17.40
2018-04-07T18:20:32.076Z,17.40
2018-04-07T18:22:58.901Z,17.20
2018-04-07T18:25:25.748Z,17.20
2018-04-07T18:27:51.830Z,17.30
2018-04-07T18:30:17.912Z,17.30
2018-04-07T18:32:44.737Z,17.20
2018-04-07T18:35:10.817Z,17.20
2018-04-07T18:37:36.965Z,17.20
2018-04-07T18:40:03.085Z,17.20
2018-04-07T18:42:29.170Z,17.10
2018-04-07T18:44:55.252Z,17.10
2018-04-07T18:47:21.343Z,17.00
2018-04-07T18:49:47.438Z,17.00
2018-04-07T18:52:14.343Z,16.90
2018-04-07T18:54:40.433Z,16.90
2018-04-07T18:57:06.516Z,16.90
2018-04-07T18:59:32.593Z,16.80
2018-04-07T19:01:58.697Z,16.80
2018-04-07T19:04:24.785Z,16.80
2018-04-07T19:06:51.629Z,16.70
2018-04-07T19:09:17.717Z,16.70
2018-04-07T19:11:43.805Z,16.70
2018-04-07T19:14:10.635Z,16.50
2018-04-07T19:16:37.472Z,16.50
2018-04-07T19:19:03.550Z,16.40
2018-04-07T19:21:29.642Z,16.40
2018-04-07T19:23:55.733Z,16.30
2018-04-07T19:26:21.877Z,16.20
2018-04-07T19:28:47.982Z,16.20
2018-04-07T19:31:14.065Z,16.20
2018-04-07T19:33:40.144Z,16.10
2018-04-07T19:36:06.237Z,16.00
2018-04-07T19:38:32.342Z,15.90
2018-04-07T19:40:58.428Z,15.90
2018-04-07T19:43:24.516Z,15.80
2018-04-07T19:45:50.614Z,15.80
2018-04-07T19:48:16.693Z,15.70
2018-04-07T19:50:42.777Z,15.70
2018-04-07T19:53:08.869Z,15.60
2018-04-07T19:55:35.704Z,15.50
2018-04-07T19:58:02.522Z,15.50
2018-04-07T20:00:28.605Z,15.50
2018-04-07T20:02:54.694Z,15.50
2018-04-07T20:05:21.549Z,15.40
2018-04-07T20:07:48.370Z,15.30
2018-04-07T20:10:14.444Z,15.30
2018-04-07T20:12:40.682Z,15.30
2018-04-07T20:15:06.760Z,15.30
2018-04-07T20:17:33.590Z,15.30
2018-04-07T20:19:59.674Z,15.20
2018-04-07T20:22:25.774Z,15.30
2018-04-07T20:24:51.857Z,15.20
2018-04-07T20:27:17.958Z,15.20
2018-04-07T20:29:44.033Z,15.20
2018-04-07T20:32:10.881Z,15.10
2018-04-07T20:34:37.720Z,15.00
2018-04-07T20:37:04.538Z,15.00
2018-04-07T20:39:30.625Z,15.00
2018-04-07T20:42:15.298Z,14.90
2018-04-07T20:44:41.392Z,14.90
2018-04-07T20:47:07.474Z,14.90
2018-04-07T20:49:44.517Z,14.90
2018-04-07T20:52:25.331Z,14.90
2018-04-07T20:55:11.317Z,14.90
2018-04-07T20:57:37.405Z,14.90
2018-04-07T21:00:03.491Z,14.80
2018-04-07T21:02:30.309Z,14.80
2018-04-07T21:05:03.986Z,14.80
2018-04-07T21:07:30.079Z,14.80
2018-04-07T21:09:56.174Z,14.70
2018-04-07T21:12:23.788Z,14.60
2018-04-07T21:14:50.606Z,14.60
2018-04-07T21:17:16.685Z,14.60
2018-04-07T21:19:48.821Z,14.50
2018-04-07T21:22:14.909Z,14.40
2018-04-07T21:24:45.974Z,14.40
2018-04-07T21:27:13.124Z,14.30
2018-04-07T21:29:46.837Z,14.30
2018-04-07T21:32:20.167Z,14.30
2018-04-07T21:34:49.817Z,14.30
2018-04-07T21:37:20.441Z,14.20
2018-04-07T21:39:47.264Z,14.10
2018-04-07T21:42:13.365Z,14.10
2018-04-07T21:44:47.665Z,14.10
2018-04-07T21:47:13.757Z,14.10
2018-04-07T21:49:40.596Z,14.10
2018-04-07T21:52:07.433Z,14.10
2018-04-07T21:54:34.261Z,14.00
2018-04-07T21:57:00.348Z,14.00
2018-04-07T21:59:26.433Z,14.10
2018-04-07T22:01:53.266Z,14.00
2018-04-07T22:04:19.378Z,14.00
2018-04-07T22:06:52.109Z,14.00
2018-04-07T22:09:18.202Z,13.90
2018-04-07T22:11:58.353Z,13.90
2018-04-07T22:14:24.441Z,13.90
2018-04-07T22:16:50.538Z,13.90
2018-04-07T22:19:16.629Z,13.90
2018-04-07T22:21:43.464Z,13.90
2018-04-07T22:24:09.565Z,13.90
2018-04-07T22:26:35.643Z,13.90
2018-04-07T22:29:01.723Z,13.80
2018-04-07T22:31:28.949Z,13.80
2018-04-07T22:33:55.049Z,13.70
2018-04-07T22:36:21.137Z,13.70
2018-04-07T22:38:47.234Z,13.60
2018-04-07T22:41:13.325Z,13.60
2018-04-07T22:43:39.416Z,13.50
2018-04-07T22:46:10.373Z,13.50
2018-04-07T22:48:37.202Z,13.40
2018-04-07T22:51:03.283Z,13.40
2018-04-07T22:53:29.389Z,13.40
2018-04-07T22:55:55.477Z,13.40
2018-04-07T22:58:22.297Z,13.30
2018-04-07T23:00:48.387Z,13.30
2018-04-07T23:03:14.468Z,13.20
2018-04-07T23:05:40.562Z,13.20
2018-04-07T23:08:06.644Z,13.20
2018-04-07T23:10:33.465Z,13.10
2018-04-07T23:13:09.788Z,13.10
2018-04-07T23:15:35.884Z,13.10
2018-04-07T23:18:01.968Z,13.10
2018-04-07T23:20:28.057Z,13.10
2018-04-07T23:22:54.133Z,13.10
2018-04-07T23:25:20.223Z,13.00
2018-04-07T23:27:46.302Z,13.00
2018-04-07T23:30:13.138Z,12.90
2018-04-07T23:32:39.965Z,12.80
2018-04-07T23:35:06.059Z,12.80
2018-04-07T23:37:32.145Z,12.70
2018-04-07T23:39:58.221Z,12.70
2018-04-07T23:42:24.318Z,12.70
2018-04-07T23:44:50.421Z,12.70
2018-04-07T23:47:16.498Z,12.70
2018-04-07T23:49:42.587Z,12.70
2018-04-07T23:52:08.671Z,12.60
2018-04-07T23:54:34.760Z,12.50
2018-04-07T23:57:00.850Z,12.50
2018-04-07T23:59:26.949Z,12.40
